Time;durP1;ratioP1;P1;durP2;ratioP2;P2;SDS_P1;SDS_P2;PMS_P1;PMS_P2;Temp;Humidity;BMP_temperature;BMP_pressure;BME280_temperature;BME280_humidity;BME280_pressure;Samples;Min_cycle;Max_cycle;Signal;HPM_P1;HPM_P2
2022/06/11 00:02:57;;;;;;;4.80;4.30;;;;;;;;;;10452295;28;20071;-77
2022/06/11 00:07:58;;;;;;;5.30;4.80;;;;;;;;;;10477761;28;20052;-77
2022/06/11 00:12:58;;;;;;;6.57;4.38;;;;;;;;;;10477356;28;20078;-76
2022/06/11 00:17:59;;;;;;;5.30;4.80;;;;;;;;;;10501627;28;20116;-78
2022/06/11 00:22:59;;;;;;;5.55;4.65;;;;;;;;;;10465527;28;20056;-76
2022/06/11 00:27:59;;;;;;;5.15;4.50;;;;;;;;;;10473738;28;20059;-77
2022/06/11 00:33:00;;;;;;;6.47;5.25;;;;;;;;;;10470203;28;20518;-77
2022/06/11 00:38:01;;;;;;;7.90;5.22;;;;;;;;;;10460535;28;20045;-77
2022/06/11 00:43:02;;;;;;;6.72;5.28;;;;;;;;;;10460761;28;20040;-78
2022/06/11 00:48:06;;;;;;;6.15;5.03;;;;;;;;;;10455332;28;20045;-77
2022/06/11 00:53:15;;;;;;;7.72;5.13;;;;;;;;;;10439479;28;20048;-77
2022/06/11 00:58:20;;;;;;;6.53;5.40;;;;;;;;;;10461872;28;20105;-77
2022/06/11 01:03:23;;;;;;;9.77;5.53;;;;;;;;;;10431271;28;20048;-77
2022/06/11 01:08:30;;;;;;;6.85;5.30;;;;;;;;;;10446626;28;20116;-79
2022/06/11 01:13:40;;;;;;;7.00;5.13;;;;;;;;;;10469410;28;20075;-77
2022/06/11 01:18:51;;;;;;;6.72;5.30;;;;;;;;;;10451419;28;20048;-76
2022/06/11 01:23:58;;;;;;;6.80;5.88;;;;;;;;;;10461212;28;20076;-78
2022/06/11 01:29:05;;;;;;;7.65;5.20;;;;;;;;;;10444044;28;20052;-77
2022/06/11 01:34:20;;;;;;;5.50;5.00;;;;;;;;;;10461197;28;20087;-77
2022/06/11 01:39:24;;;;;;;5.70;5.07;;;;;;;;;;10473043;28;20053;-76
2022/06/11 01:44:36;;;;;;;5.93;4.90;;;;;;;;;;10449559;28;20498;-76
2022/06/11 01:49:40;;;;;;;6.25;4.95;;;;;;;;;;10460317;28;20732;-76
2022/06/11 01:54:46;;;;;;;6.10;5.50;;;;;;;;;;10441182;28;20128;-78
2022/06/11 01:59:47;;;;;;;5.88;5.28;;;;;;;;;;10456600;28;20063;-77
2022/06/11 02:04:55;;;;;;;5.65;4.95;;;;;;;;;;10452893;28;20342;-78
2022/06/11 02:10:21;;;;;;;5.20;4.72;;;;;;;;;;10442033;28;20037;-77
2022/06/11 02:15:30;;;;;;;7.60;5.32;;;;;;;;;;10449078;28;20057;-77
2022/06/11 02:20:40;;;;;;;5.97;4.85;;;;;;;;;;10470911;28;20049;-78
2022/06/11 02:25:45;;;;;;;5.95;5.38;;;;;;;;;;10454107;28;20097;-78
2022/06/11 02:30:46;;;;;;;5.50;4.75;;;;;;;;;;10464785;28;20483;-77
2022/06/11 02:35:49;;;;;;;5.20;4.75;;;;;;;;;;10448369;28;20672;-77
2022/06/11 02:40:54;;;;;;;7.38;5.70;;;;;;;;;;10474731;28;20063;-77
2022/06/11 02:45:55;;;;;;;5.82;5.22;;;;;;;;;;10473098;28;20495;-78
2022/06/11 02:50:56;;;;;;;6.15;4.95;;;;;;;;;;10477995;28;20068;-78
2022/06/11 02:55:56;;;;;;;5.07;4.57;;;;;;;;;;10484492;28;20064;-77
2022/06/11 03:00:57;;;;;;;6.80;4.78;;;;;;;;;;10468671;28;20121;-77
2022/06/11 03:05:58;;;;;;;6.40;5.40;;;;;;;;;;10463822;28;20040;-76
2022/06/11 03:10:58;;;;;;;6.00;5.43;;;;;;;;;;10481617;28;20051;-76
2022/06/11 03:15:59;;;;;;;6.25;5.50;;;;;;;;;;10451815;28;20495;-76
2022/06/11 03:21:00;;;;;;;5.37;4.87;;;;;;;;;;10480429;28;20040;-76
2022/06/11 03:26:01;;;;;;;6.07;5.32;;;;;;;;;;10463834;28;20335;-77
2022/06/11 03:31:03;;;;;;;6.00;5.40;;;;;;;;;;10458074;28;20047;-77
2022/06/11 03:36:06;;;;;;;6.05;5.45;;;;;;;;;;10460903;28;20045;-77
2022/06/11 03:41:07;;;;;;;5.38;4.88;;;;;;;;;;10452095;28;20041;-77
2022/06/11 03:46:07;;;;;;;6.45;5.82;;;;;;;;;;10443185;28;20675;-79
2022/06/11 03:51:08;;;;;;;6.55;5.53;;;;;;;;;;10466432;28;20049;-79
2022/06/11 03:56:09;;;;;;;6.93;5.45;;;;;;;;;;10453891;28;20468;-77
2022/06/11 04:01:16;;;;;;;6.30;5.50;;;;;;;;;;10436493;28;20040;-78
2022/06/11 04:06:19;;;;;;;7.18;5.95;;;;;;;;;;10462042;28;20067;-78
2022/06/11 04:11:21;;;;;;;6.63;5.88;;;;;;;;;;10457795;28;20973;-77
2022/06/11 04:16:27;;;;;;;9.18;6.30;;;;;;;;;;10459339;28;20077;-76
2022/06/11 04:21:28;;;;;;;6.97;5.85;;;;;;;;;;10476014;28;20051;-76
2022/06/11 04:26:32;;;;;;;5.85;5.25;;;;;;;;;;10469282;28;20059;-76
2022/06/11 04:31:33;;;;;;;6.13;5.53;;;;;;;;;;10476768;28;20056;-78
2022/06/11 04:36:34;;;;;;;6.00;5.40;;;;;;;;;;10474570;28;20063;-76
2022/06/11 04:41:35;;;;;;;6.72;5.85;;;;;;;;;;10484644;28;20100;-76
2022/06/11 04:46:36;;;;;;;6.22;5.18;;;;;;;;;;10473125;28;20060;-76
2022/06/11 04:51:36;;;;;;;5.20;4.78;;;;;;;;;;10461029;28;20048;-76
2022/06/11 04:56:40;;;;;;;5.68;5.13;;;;;;;;;;10447824;28;20068;-77
2022/06/11 05:01:42;;;;;;;6.20;5.20;;;;;;;;;;10465081;28;20049;-76
2022/06/11 05:06:44;;;;;;;5.83;5.23;;;;;;;;;;10468199;28;20178;-77
2022/06/11 05:11:45;;;;;;;6.73;6.03;;;;;;;;;;10474269;28;20141;-78
2022/06/11 05:16:46;;;;;;;7.75;6.35;;;;;;;;;;10505990;28;20045;-76
2022/06/11 05:21:48;;;;;;;6.32;5.72;;;;;;;;;;10491871;28;20045;-76
2022/06/11 05:26:58;;;;;;;7.10;6.40;;;;;;;;;;10489214;28;20049;-79
2022/06/11 05:32:00;;;;;;;7.13;5.93;;;;;;;;;;10434075;28;20067;-78
2022/06/11 05:37:01;;;;;;;7.37;6.57;;;;;;;;;;10476827;28;20108;-77
2022/06/11 05:42:01;;;;;;;8.27;6.57;;;;;;;;;;10469717;28;20717;-77
2022/06/11 05:47:04;;;;;;;7.93;7.10;;;;;;;;;;10451203;28;20048;-77
2022/06/11 05:52:08;;;;;;;8.00;7.25;;;;;;;;;;10475571;28;20480;-78
2022/06/11 05:57:10;;;;;;;8.90;6.72;;;;;;;;;;10425252;28;20082;-78
2022/06/11 06:02:13;;;;;;;11.32;7.75;;;;;;;;;;10459457;28;20044;-77
2022/06/11 06:07:13;;;;;;;7.82;7.03;;;;;;;;;;10473986;28;20044;-76
2022/06/11 06:12:15;;;;;;;8.00;7.20;;;;;;;;;;10470303;28;20052;-75
2022/06/11 06:17:16;;;;;;;8.20;6.95;;;;;;;;;;10476244;28;20506;-76
2022/06/11 06:22:16;;;;;;;8.70;7.03;;;;;;;;;;10461633;28;20044;-77
2022/06/11 06:27:17;;;;;;;8.27;6.70;;;;;;;;;;10442393;28;20098;-76
2022/06/11 06:32:17;;;;;;;7.45;6.75;;;;;;;;;;10478980;28;20943;-77
2022/06/11 06:37:18;;;;;;;7.07;6.00;;;;;;;;;;10457346;28;20048;-77
2022/06/11 06:42:19;;;;;;;7.27;6.57;;;;;;;;;;10464502;28;20122;-76
2022/06/11 06:47:19;;;;;;;7.97;6.60;;;;;;;;;;10450889;28;20437;-77
2022/06/11 06:52:20;;;;;;;6.10;5.50;;;;;;;;;;10472244;28;20526;-76
2022/06/11 06:57:21;;;;;;;8.13;6.30;;;;;;;;;;10463556;28;20049;-78
2022/06/11 07:02:21;;;;;;;9.80;6.40;;;;;;;;;;10461058;28;20091;-81
2022/06/11 07:07:21;;;;;;;8.03;6.20;;;;;;;;;;10452662;28;20045;-77
2022/06/11 07:12:22;;;;;;;9.23;6.40;;;;;;;;;;10448605;28;20115;-77
2022/06/11 07:17:23;;;;;;;8.25;5.40;;;;;;;;;;10473422;28;20048;-76
2022/06/11 07:22:31;;;;;;;7.05;5.70;;;;;;;;;;10466159;28;20049;-76
2022/06/11 07:27:33;;;;;;;5.95;5.35;;;;;;;;;;10490914;28;20454;-76
2022/06/11 07:32:35;;;;;;;6.80;5.97;;;;;;;;;;10460404;28;20044;-76
2022/06/11 07:37:35;;;;;;;6.07;5.10;;;;;;;;;;10488699;28;20063;-74
2022/06/11 07:42:38;;;;;;;5.82;5.22;;;;;;;;;;10474962;28;20041;-73
2022/06/11 07:47:54;;;;;;;5.80;4.20;;;;;;;;;;10459365;28;20052;-74
2022/06/11 07:52:55;;;;;;;5.45;4.40;;;;;;;;;;10461520;28;20404;-72
2022/06/11 07:57:55;;;;;;;4.72;3.55;;;;;;;;;;10449428;28;20098;-74
2022/06/11 08:02:56;;;;;;;5.22;4.63;;;;;;;;;;10471750;28;20052;-78
2022/06/11 08:07:56;;;;;;;4.50;4.10;;;;;;;;;;10478022;28;20051;-79
2022/06/11 08:12:57;;;;;;;4.93;3.60;;;;;;;;;;10450596;28;20088;-79
2022/06/11 08:17:57;;;;;;;6.87;4.20;;;;;;;;;;10459073;28;20041;-78
2022/06/11 08:22:58;;;;;;;6.25;4.22;;;;;;;;;;10456674;28;20116;-77
2022/06/11 08:27:58;;;;;;;4.78;3.97;;;;;;;;;;10462865;28;20731;-78
2022/06/11 08:32:59;;;;;;;7.20;4.20;;;;;;;;;;10481213;28;20064;-77
2022/06/11 08:38:00;;;;;;;3.47;3.13;;;;;;;;;;10494008;28;20359;-79
2022/06/11 08:43:03;;;;;;;6.57;3.67;;;;;;;;;;10468275;28;20044;-78
2022/06/11 08:48:10;;;;;;;3.08;2.65;;;;;;;;;;10476657;28;20357;-77
2022/06/11 08:53:11;;;;;;;3.95;3.13;;;;;;;;;;10464945;28;20048;-78
2022/06/11 08:58:18;;;;;;;4.45;3.58;;;;;;;;;;10471464;28;20059;-77
2022/06/11 09:03:30;;;;;;;5.70;3.70;;;;;;;;;;10469414;28;20089;-77
2022/06/11 09:08:31;;;;;;;3.45;3.13;;;;;;;;;;10450643;28;20120;-78
2022/06/11 09:13:34;;;;;;;4.10;2.92;;;;;;;;;;10468875;28;20634;-77
2022/06/11 09:18:44;;;;;;;3.88;3.15;;;;;;;;;;10452277;28;20064;-77
2022/06/11 09:23:58;;;;;;;3.40;2.90;;;;;;;;;;10461326;28;20341;-77
2022/06/11 09:29:18;;;;;;;4.82;3.50;;;;;;;;;;10466892;28;20072;-78
2022/06/11 09:34:21;;;;;;;6.15;3.30;;;;;;;;;;10441324;28;20068;-77
2022/06/11 09:39:57;;;;;;;5.05;3.40;;;;;;;;;;10468199;28;20067;-77
2022/06/11 09:45:17;;;;;;;5.30;3.17;;;;;;;;;;10400799;28;20053;-79
2022/06/11 09:50:29;;;;;;;4.05;3.65;;;;;;;;;;10465012;28;20078;-77
2022/06/11 09:55:35;;;;;;;4.60;3.17;;;;;;;;;;10443495;28;20051;-77
2022/06/11 10:00:45;;;;;;;3.03;2.70;;;;;;;;;;10474955;28;20044;-76
2022/06/11 10:05:55;;;;;;;5.65;4.30;;;;;;;;;;10464468;28;20300;-78
2022/06/11 10:10:56;;;;;;;3.85;3.00;;;;;;;;;;10468706;28;20090;-80
2022/06/11 10:15:58;;;;;;;4.97;3.67;;;;;;;;;;10471018;28;20168;-78
2022/06/11 10:21:04;;;;;;;3.20;2.67;;;;;;;;;;10447387;28;20169;-77
2022/06/11 10:26:16;;;;;;;2.97;2.42;;;;;;;;;;10456025;28;20056;-77
2022/06/11 10:31:19;;;;;;;4.32;2.42;;;;;;;;;;10453436;28;20098;-78
2022/06/11 10:36:35;;;;;;;2.28;2.08;;;;;;;;;;10465154;28;20392;-79
2022/06/11 10:41:46;;;;;;;6.72;4.65;;;;;;;;;;10465099;28;20134;-77
2022/06/11 10:46:47;;;;;;;2.65;2.45;;;;;;;;;;10471817;28;20107;-77
2022/06/11 10:51:51;;;;;;;2.92;2.20;;;;;;;;;;10460857;28;20041;-77
2022/06/11 10:57:13;;;;;;;2.47;2.22;;;;;;;;;;10466747;28;20096;-77
2022/06/11 11:02:43;;;;;;;3.63;2.28;;;;;;;;;;10429197;28;20139;-78
2022/06/11 11:07:43;;;;;;;2.10;1.90;;;;;;;;;;10455427;28;20099;-77
2022/06/11 11:12:44;;;;;;;3.58;2.17;;;;;;;;;;10453746;28;20079;-77
2022/06/11 11:17:48;;;;;;;2.92;2.35;;;;;;;;;;10469378;28;20051;-77
2022/06/11 11:22:52;;;;;;;2.30;2.05;;;;;;;;;;10474965;28;20131;-78
2022/06/11 11:27:52;;;;;;;2.80;2.30;;;;;;;;;;10463369;28;20445;-77
2022/06/11 11:32:53;;;;;;;2.87;1.87;;;;;;;;;;10473095;28;20118;-76
2022/06/11 11:37:58;;;;;;;2.80;2.30;;;;;;;;;;10479303;28;20336;-76
2022/06/11 11:43:03;;;;;;;2.25;2.03;;;;;;;;;;10465559;28;20296;-76
2022/06/11 11:48:05;;;;;;;2.38;1.98;;;;;;;;;;10476514;28;20037;-78
2022/06/11 11:53:05;;;;;;;;;;;;;;;;;;10472957;28;20190;-77
2022/06/11 11:58:12;;;;;;;3.60;1.98;;;;;;;;;;10471204;28;20016;-78
2022/06/11 12:03:20;;;;;;;4.50;2.30;;;;;;;;;;10476873;28;20049;-77
2022/06/11 12:08:26;;;;;;;3.17;2.58;;;;;;;;;;10477381;28;20049;-79
2022/06/11 12:13:28;;;;;;;3.05;2.15;;;;;;;;;;10440017;28;20072;-77
2022/06/11 12:18:32;;;;;;;2.70;1.80;;;;;;;;;;10433040;28;20037;-78
2022/06/11 12:23:39;;;;;;;2.67;1.80;;;;;;;;;;10473496;28;20043;-78
2022/06/11 12:28:46;;;;;;;2.40;1.77;;;;;;;;;;10458102;28;20044;-76
2022/06/11 12:33:47;;;;;;;2.83;1.90;;;;;;;;;;10469906;28;20510;-77
2022/06/11 12:38:58;;;;;;;2.77;1.97;;;;;;;;;;10471617;28;20503;-76
2022/06/11 12:44:20;;;;;;;2.77;1.87;;;;;;;;;;10463085;28;20067;-78
2022/06/11 12:49:36;;;;;;;2.40;1.60;;;;;;;;;;10464931;28;20045;-77
2022/06/11 12:54:45;;;;;;;1.88;1.60;;;;;;;;;;10448089;28;20213;-76
2022/06/11 12:59:48;;;;;;;1.95;1.77;;;;;;;;;;10471527;28;20087;-76
2022/06/11 13:05:04;;;;;;;2.25;2.00;;;;;;;;;;10467613;28;20064;-78
2022/06/11 13:10:16;;;;;;;2.03;1.75;;;;;;;;;;10493895;28;20055;-78
2022/06/11 13:15:29;;;;;;;2.35;1.80;;;;;;;;;;10491777;28;20092;-77
2022/06/11 13:20:35;;;;;;;4.85;4.13;;;;;;;;;;10485136;28;20095;-76
2022/06/11 13:25:52;;;;;;;2.60;1.90;;;;;;;;;;10435542;28;20100;-79
2022/06/11 13:31:05;;;;;;;2.55;1.77;;;;;;;;;;10438041;28;20048;-82
2022/06/11 13:36:26;;;;;;;5.10;2.35;;;;;;;;;;10464935;28;20068;-82
2022/06/11 13:41:45;;;;;;;2.10;1.67;;;;;;;;;;10483027;28;20049;-80
2022/06/11 13:46:46;;;;;;;2.40;1.80;;;;;;;;;;10480488;28;20487;-81
2022/06/11 13:51:49;;;;;;;2.00;1.60;;;;;;;;;;10481607;28;20052;-79
2022/06/11 13:57:08;;;;;;;3.60;1.98;;;;;;;;;;10474877;28;20052;-78
2022/06/11 14:02:08;;;;;;;2.40;2.20;;;;;;;;;;10472290;28;20045;-77
2022/06/11 14:07:11;;;;;;;2.25;1.95;;;;;;;;;;10472204;28;20369;-79
2022/06/11 14:12:33;;;;;;;3.00;1.90;;;;;;;;;;10478329;28;20037;-80
2022/06/11 14:17:53;;;;;;;2.83;1.70;;;;;;;;;;10475972;28;20407;-74
2022/06/11 14:23:01;;;;;;;2.67;1.60;;;;;;;;;;10448103;28;20498;-74
2022/06/11 14:28:25;;;;;;;1.88;1.70;;;;;;;;;;10471260;28;20064;-76
2022/06/11 14:33:27;;;;;;;2.78;1.83;;;;;;;;;;10457343;28;20064;-75
2022/06/11 14:38:38;;;;;;;1.65;1.40;;;;;;;;;;10424924;28;20048;-76
2022/06/11 14:43:51;;;;;;;2.25;1.85;;;;;;;;;;10467236;28;20080;-77
2022/06/11 14:48:53;;;;;;;2.63;2.00;;;;;;;;;;10470070;28;20045;-76
2022/06/11 14:54:04;;;;;;;2.33;1.70;;;;;;;;;;10450926;28;20045;-75
2022/06/11 14:59:23;;;;;;;3.57;2.10;;;;;;;;;;10468912;28;20055;-75
2022/06/11 15:04:34;;;;;;;2.42;2.00;;;;;;;;;;10457254;28;20056;-76
2022/06/11 15:09:44;;;;;;;3.13;2.42;;;;;;;;;;10449482;28;20055;-75
2022/06/11 15:15:02;;;;;;;2.42;2.08;;;;;;;;;;10483906;28;20056;-79
2022/06/11 15:20:05;;;;;;;3.15;1.80;;;;;;;;;;10467217;28;20408;-78
2022/06/11 15:25:15;;;;;;;4.03;2.00;;;;;;;;;;10474609;28;20056;-79
2022/06/11 15:30:26;;;;;;;2.58;1.67;;;;;;;;;;10468986;28;20543;-79
2022/06/11 15:35:30;;;;;;;3.20;2.35;;;;;;;;;;10477986;28;20063;-79
2022/06/11 15:40:33;;;;;;;2.40;1.70;;;;;;;;;;10451534;28;20395;-76
2022/06/11 15:45:36;;;;;;;2.67;1.63;;;;;;;;;;10471442;28;20058;-76
2022/06/11 15:50:37;;;;;;;2.53;2.10;;;;;;;;;;10441909;28;20489;-74
2022/06/11 15:55:39;;;;;;;2.60;2.05;;;;;;;;;;10461879;28;20061;-72
2022/06/11 16:00:40;;;;;;;2.60;1.98;;;;;;;;;;10462886;28;20454;-74
2022/06/11 16:05:42;;;;;;;;;;;;;;;;;;10465769;28;20044;-74
2022/06/11 16:10:43;;;;;;;2.93;1.80;;;;;;;;;;10466635;28;19921;-73
2022/06/11 16:15:43;;;;;;;3.50;1.80;;;;;;;;;;10431024;28;20057;-75
2022/06/11 16:20:55;;;;;;;2.37;1.90;;;;;;;;;;10452106;28;20119;-79
2022/06/11 16:25:57;;;;;;;2.23;1.93;;;;;;;;;;10466645;28;20037;-80
2022/06/11 16:31:03;;;;;;;1.92;1.80;;;;;;;;;;10437616;28;20049;-82
2022/06/11 16:36:03;;;;;;;2.83;2.10;;;;;;;;;;10452269;28;20544;-80
2022/06/11 16:41:07;;;;;;;2.10;1.90;;;;;;;;;;10476253;28;20052;-79
2022/06/11 16:46:08;;;;;;;2.65;2.10;;;;;;;;;;10453029;28;20037;-81
2022/06/11 16:56:40;;;;;;;4.40;1.95;;;;;;;;;;10475477;28;20307;-83
2022/06/11 17:01:43;;;;;;;4.25;2.03;;;;;;;;;;10464120;28;20072;-80
2022/06/11 17:07:04;;;;;;;4.93;2.40;;;;;;;;;;10442187;28;20044;-79
2022/06/11 17:12:37;;;;;;;2.33;2.10;;;;;;;;;;10469247;28;20063;-79
2022/06/11 17:17:43;;;;;;;3.05;2.00;;;;;;;;;;10465542;28;20056;-74
2022/06/11 17:22:44;;;;;;;2.88;2.20;;;;;;;;;;10469334;28;20127;-75
2022/06/11 17:27:46;;;;;;;2.73;2.23;;;;;;;;;;10451595;28;20483;-75
2022/06/11 17:32:47;;;;;;;3.38;2.38;;;;;;;;;;10428161;28;20097;-81
2022/06/11 17:37:52;;;;;;;2.67;2.20;;;;;;;;;;10422960;28;20141;-81
2022/06/11 17:42:58;;;;;;;2.65;2.10;;;;;;;;;;10456511;28;20151;-80
2022/06/11 17:48:27;;;;;;;3.72;2.28;;;;;;;;;;10426071;28;20735;-80
2022/06/11 17:53:29;;;;;;;3.28;2.42;;;;;;;;;;10346902;28;20509;-82
2022/06/11 17:58:38;;;;;;;3.97;2.67;;;;;;;;;;10429113;28;20466;-80
2022/06/11 18:03:38;;;;;;;2.40;1.92;;;;;;;;;;10424976;28;20041;-80
2022/06/11 18:09:17;;;;;;;6.13;2.95;;;;;;;;;;10410272;28;20116;-79
2022/06/11 18:14:14;;;;;;;3.22;2.17;;;;;;;;;;10385777;28;20049;-81
2022/06/11 18:19:14;;;;;;;3.28;2.97;;;;;;;;;;10459277;28;20101;-83
2022/06/11 18:29:39;;;;;;;3.42;2.60;;;;;;;;;;10445273;28;20064;-81
2022/06/11 18:35:03;;;;;;;3.13;2.70;;;;;;;;;;10423676;28;20057;-84
2022/06/11 18:41:07;;;;;;;2.70;2.40;;;;;;;;;;10480150;28;20044;-83
2022/06/11 18:51:27;;;;;;;3.10;2.72;;;;;;;;;;10028286;26;20053;-83
2022/06/11 18:57:02;;;;;;;5.50;2.75;;;;;;;;;;10411801;28;20095;-84
2022/06/11 19:02:11;;;;;;;2.70;2.30;;;;;;;;;;10399789;28;20108;-79
2022/06/11 19:07:17;;;;;;;2.78;2.42;;;;;;;;;;10439307;28;20126;-80
2022/06/11 19:12:17;;;;;;;3.55;2.53;;;;;;;;;;10450471;28;20049;-81
2022/06/11 19:17:19;;;;;;;3.60;3.10;;;;;;;;;;10461295;28;20462;-81
2022/06/11 19:22:20;;;;;;;6.25;3.33;;;;;;;;;;10445397;28;20095;-78
2022/06/11 19:27:20;;;;;;;5.40;3.30;;;;;;;;;;10423497;28;20104;-80
2022/06/11 19:32:25;;;;;;;2.92;2.60;;;;;;;;;;10452416;28;20045;-80
2022/06/11 19:37:35;;;;;;;4.03;3.20;;;;;;;;;;10421013;28;20587;-80
2022/06/11 19:42:37;;;;;;;4.57;3.40;;;;;;;;;;10455424;28;20048;-78
2022/06/11 19:47:40;;;;;;;7.15;4.90;;;;;;;;;;10440477;28;20553;-82
2022/06/11 19:53:03;;;;;;;6.15;4.07;;;;;;;;;;10406637;28;20067;-79
2022/06/11 20:11:25;;;;;;;7.00;5.28;;;;;;;;;;10348568;28;20038;-80
2022/06/11 20:16:37;;;;;;;7.55;5.00;;;;;;;;;;10402897;28;20080;-85
2022/06/11 20:22:02;;;;;;;6.35;4.90;;;;;;;;;;10353036;28;20063;-81
2022/06/11 20:34:27;;;;;;;5.28;4.78;;;;;;;;;;10016390;29;20049;-81
2022/06/11 20:39:41;;;;;;;6.97;5.90;;;;;;;;;;10153665;28;20072;-81
2022/06/11 20:44:50;;;;;;;7.00;5.65;;;;;;;;;;10369084;28;20046;-85
2022/06/11 20:49:52;;;;;;;8.05;5.38;;;;;;;;;;10431870;28;20093;-86
2022/06/11 20:54:57;;;;;;;6.80;5.03;;;;;;;;;;10429041;28;20041;-82
2022/06/11 21:00:00;;;;;;;6.57;4.93;;;;;;;;;;10431185;28;20102;-80
2022/06/11 21:05:04;;;;;;;6.77;6.03;;;;;;;;;;10412725;28;20053;-82
2022/06/11 21:10:06;;;;;;;6.75;5.80;;;;;;;;;;10385790;28;20045;-78
2022/06/11 21:15:08;;;;;;;14.05;8.88;;;;;;;;;;10407748;28;20072;-82
2022/06/11 21:20:13;;;;;;;11.38;8.45;;;;;;;;;;10425836;28;20029;-79
2022/06/11 21:25:18;;;;;;;9.20;7.25;;;;;;;;;;10458572;28;20041;-82
2022/06/11 21:30:21;;;;;;;10.75;8.68;;;;;;;;;;10391827;28;20869;-80
2022/06/11 21:35:25;;;;;;;11.40;8.88;;;;;;;;;;10409867;28;20084;-81
2022/06/11 21:40:27;;;;;;;10.90;9.80;;;;;;;;;;10461283;28;20056;-80
2022/06/11 21:45:28;;;;;;;12.10;8.90;;;;;;;;;;10473702;28;20034;-84
2022/06/11 21:50:29;;;;;;;11.52;8.80;;;;;;;;;;10478986;28;20073;-86
2022/06/11 21:55:29;;;;;;;10.03;8.70;;;;;;;;;;10473669;28;20095;-80
2022/06/11 22:00:32;;;;;;;10.77;7.57;;;;;;;;;;10450061;28;20342;-79
2022/06/11 22:05:36;;;;;;;9.88;7.05;;;;;;;;;;10441166;28;20049;-78
2022/06/11 22:10:37;;;;;;;7.63;6.93;;;;;;;;;;10437430;28;20548;-79
2022/06/11 22:15:38;;;;;;;7.25;6.50;;;;;;;;;;10419839;28;20121;-79
2022/06/11 22:20:38;;;;;;;7.00;6.40;;;;;;;;;;10425673;28;20112;-79
2022/06/11 22:25:41;;;;;;;7.18;6.47;;;;;;;;;;10440888;28;20040;-81
2022/06/11 22:30:42;;;;;;;9.75;6.53;;;;;;;;;;10446531;28;20084;-78
2022/06/11 22:35:43;;;;;;;8.90;7.00;;;;;;;;;;10406986;28;20068;-79
2022/06/11 22:40:44;;;;;;;7.30;6.40;;;;;;;;;;10447088;28;20033;-79
2022/06/11 22:45:44;;;;;;;7.00;6.30;;;;;;;;;;10453869;28;20049;-80
2022/06/11 22:50:45;;;;;;;7.57;6.87;;;;;;;;;;10441375;28;20166;-79
2022/06/11 22:55:46;;;;;;;7.60;6.50;;;;;;;;;;10448959;28;20651;-79
2022/06/11 23:00:48;;;;;;;8.98;7.13;;;;;;;;;;10396355;28;20052;-81
2022/06/11 23:05:50;;;;;;;7.70;7.00;;;;;;;;;;10420411;28;20053;-80
2022/06/11 23:10:51;;;;;;;7.97;7.07;;;;;;;;;;10432801;28;20136;-80
2022/06/11 23:15:52;;;;;;;7.47;6.78;;;;;;;;;;10420034;28;20046;-80
2022/06/11 23:21:01;;;;;;;7.78;7.07;;;;;;;;;;10440070;28;20045;-81
2022/06/11 23:26:01;;;;;;;7.63;6.85;;;;;;;;;;10428939;28;20099;-80
2022/06/11 23:31:03;;;;;;;7.72;7.03;;;;;;;;;;10438855;28;20541;-81
2022/06/11 23:36:36;;;;;;;7.40;6.80;;;;;;;;;;10418758;28;20049;-80
2022/06/11 23:41:37;;;;;;;8.52;7.13;;;;;;;;;;10437034;28;20144;-80
2022/06/11 23:46:39;;;;;;;7.40;6.80;;;;;;;;;;10417205;28;20045;-80
2022/06/11 23:51:40;;;;;;;8.07;7.28;;;;;;;;;;10422493;28;20476;-79
2022/06/11 23:56:42;;;;;;;7.20;6.50;;;;;;;;;;10433873;28;20061;-79
